createdAt,value
2018-07-28T08:28:42.618Z,922.50
2018-07-28T09:20:34.238Z,1873.12
2018-07-28T09:21:31.718Z,1597.50
2018-07-28T09:22:31.826Z,1445.62
2018-07-28T09:23:31.711Z,1473.75
2018-07-28T09:24:31.662Z,1513.12
2018-07-28T09:25:31.754Z,1389.38
2018-07-28T09:26:32.352Z,1350.00
2018-07-28T09:27:31.801Z,1423.12
2018-07-28T09:28:31.715Z,2283.75
2018-07-28T09:29:36.255Z,2975.62
2018-07-28T09:30:31.896Z,2081.25
2018-07-28T09:31:31.859Z,2345.62
2018-07-28T09:32:34.164Z,2733.75
2018-07-28T09:35:25.596Z,1771.88
2018-07-28T09:36:27.162Z,2278.12
2018-07-28T09:37:27.365Z,1479.38
2018-07-28T09:38:25.426Z,1580.62
2018-07-28T09:39:28.384Z,1417.50
2018-07-28T09:40:27.248Z,1293.75
2018-07-28T09:41:28.243Z,1411.88
2018-07-28T09:42:27.188Z,2165.62
2018-07-28T09:43:27.142Z,1411.88
2018-07-28T09:44:27.035Z,1794.38
2018-07-28T09:45:27.065Z,2025.00
2018-07-28T09:46:27.032Z,2317.50
2018-07-28T09:47:26.996Z,2632.50
2018-07-28T09:48:27.149Z,2160.00
2018-07-28T09:49:25.732Z,1839.38
2018-07-28T09:50:27.261Z,1833.75
2018-07-28T09:51:27.661Z,1833.75
2018-07-28T09:52:25.799Z,1918.12
2018-07-28T09:54:15.730Z,1473.75
2018-07-28T09:55:39.868Z,1372.50
2018-07-28T09:56:16.806Z,1681.88
2018-07-28T09:57:16.903Z,1170.00
2018-07-28T09:58:16.930Z,1091.25
2018-07-28T09:59:17.643Z,1046.25
2018-07-28T10:00:18.150Z,1040.62
2018-07-28T10:01:18.935Z,1046.25
2018-07-28T10:02:51.539Z,1057.50
2018-07-28T10:03:16.834Z,1057.50
2018-07-28T10:04:18.476Z,1068.75
2018-07-28T10:05:16.869Z,1074.38
2018-07-28T10:06:16.606Z,1096.88
2018-07-28T10:07:16.575Z,1108.12
2018-07-28T10:08:16.603Z,1130.62
2018-07-28T10:09:16.630Z,1147.50
2018-07-28T10:10:16.570Z,1175.62
2018-07-28T10:11:16.676Z,1198.12
2018-07-28T10:12:17.544Z,1158.75
2018-07-28T10:13:16.513Z,1119.38
2018-07-28T10:14:16.520Z,1091.25
2018-07-28T10:15:17.569Z,1063.12
2018-07-28T10:16:17.081Z,1029.38
2018-07-28T10:17:16.574Z,984.38
2018-07-28T10:18:14.921Z,933.75
2018-07-28T10:19:16.645Z,916.88
2018-07-28T10:20:16.595Z,916.88
2018-07-28T10:21:17.600Z,933.75
2018-07-28T10:22:16.842Z,973.12
2018-07-28T10:23:17.614Z,1029.38
2018-07-28T10:24:14.846Z,1119.38
2018-07-28T10:25:17.618Z,1282.50
2018-07-28T10:26:16.841Z,1957.50
2018-07-28T10:27:16.663Z,2531.25
2018-07-28T10:28:16.744Z,2958.75
2018-07-28T10:29:16.629Z,3144.38
2018-07-28T10:30:16.906Z,1783.12
2018-07-28T10:31:16.677Z,1535.62
2018-07-28T10:32:16.710Z,1580.62
2018-07-28T10:33:16.572Z,1361.25
2018-07-28T10:34:16.903Z,1220.62
2018-07-28T10:35:16.593Z,1141.88
2018-07-28T10:36:16.853Z,1141.88
2018-07-28T10:37:16.731Z,1316.25
2018-07-28T10:38:15.710Z,1597.50
2018-07-28T10:39:16.152Z,1518.75
2018-07-28T10:40:16.108Z,1563.75
2018-07-28T10:41:16.225Z,1985.62
2018-07-28T10:42:16.162Z,3971.25
2018-07-28T10:43:14.581Z,1535.62
2018-07-28T10:44:16.559Z,1366.88
2018-07-28T10:45:17.072Z,1350.00
2018-07-28T10:46:15.539Z,1372.50
2018-07-28T10:47:17.147Z,1417.50
2018-07-28T10:48:17.022Z,1496.25
2018-07-28T10:49:15.459Z,1524.38
2018-07-28T10:50:16.124Z,1473.75
2018-07-28T10:51:16.063Z,4021.88
2018-07-28T10:52:16.005Z,1890.00
2018-07-28T10:53:16.008Z,2649.38
2018-07-28T10:54:17.007Z,2446.88
2018-07-28T10:55:22.176Z,1580.62
2018-07-28T10:56:16.248Z,1968.75
2018-07-28T10:57:16.250Z,2604.38
2018-07-28T10:58:16.627Z,3048.75
2018-07-28T10:59:15.050Z,4646.25
2018-07-28T11:00:17.059Z,3746.25
2018-07-28T11:01:16.043Z,2306.25
2018-07-28T11:02:16.092Z,1985.62
2018-07-28T11:03:17.092Z,1822.50
2018-07-28T11:04:16.042Z,1681.88
2018-07-28T11:05:16.056Z,1698.75
2018-07-28T11:06:16.073Z,1653.75
2018-07-28T11:07:16.082Z,1614.38
2018-07-28T11:08:16.044Z,1552.50
2018-07-28T11:09:16.112Z,1501.88
2018-07-28T11:10:14.201Z,1445.62
2018-07-28T11:11:17.057Z,1406.25
2018-07-28T11:12:16.047Z,1355.62
2018-07-28T11:13:16.053Z,1305.00
2018-07-28T11:14:17.213Z,1226.25
2018-07-28T11:15:16.094Z,1113.75
2018-07-28T11:16:16.087Z,1012.50
2018-07-28T11:17:16.134Z,973.12
2018-07-28T11:18:16.055Z,1006.88
2018-07-28T11:19:16.052Z,1063.12
2018-07-28T11:20:17.154Z,1125.00
2018-07-28T11:21:16.061Z,1215.00
2018-07-28T11:22:15.089Z,1299.38
2018-07-28T11:23:18.588Z,1479.38
2018-07-28T11:24:14.138Z,2272.50
2018-07-28T11:26:35.960Z,2030.62
2018-07-28T11:27:36.698Z,1816.88
2018-07-28T11:28:37.715Z,1681.88
2018-07-28T11:29:35.959Z,1743.75
2018-07-28T11:30:37.064Z,1563.75
2018-07-28T11:31:36.351Z,1524.38
2018-07-28T11:32:34.745Z,1496.25
2018-07-28T11:33:37.499Z,1485.00
2018-07-28T11:34:36.444Z,1496.25
2018-07-28T11:35:34.635Z,1513.12
2018-07-28T11:36:36.440Z,1558.12
2018-07-28T11:37:36.430Z,1608.75
2018-07-28T11:38:36.400Z,1530.00
2018-07-28T11:39:36.402Z,1456.88
2018-07-28T11:40:36.612Z,1468.12
2018-07-28T11:43:31.105Z,1524.38
2018-07-28T11:44:31.819Z,1406.25
2018-07-28T11:45:33.328Z,1254.38
2018-07-28T11:46:31.645Z,1153.12
2018-07-28T11:47:31.703Z,1096.88
2018-07-28T11:48:31.704Z,1091.25
2018-07-28T11:49:31.637Z,1125.00
2018-07-28T11:50:31.707Z,1237.50
2018-07-28T11:51:31.655Z,1575.00
2018-07-28T11:52:31.984Z,1974.38
2018-07-28T11:53:31.704Z,1811.25
2018-07-28T11:54:31.653Z,1856.25
2018-07-28T11:55:29.972Z,2081.25
2018-07-28T11:56:34.874Z,2221.88
2018-07-28T11:57:31.665Z,1766.25
2018-07-28T11:58:31.948Z,1580.62
2018-07-28T11:59:31.828Z,1485.00
2018-07-28T12:00:31.696Z,1366.88
2018-07-28T12:01:32.781Z,1276.88
2018-07-28T12:02:32.687Z,1248.75
2018-07-28T12:03:31.892Z,1254.38
2018-07-28T12:04:41.654Z,1316.25
2018-07-28T12:05:30.154Z,1400.62
2018-07-28T12:06:29.964Z,1400.62
2018-07-28T12:07:31.065Z,1434.38
2018-07-28T12:08:29.696Z,1541.25
2018-07-28T12:09:31.148Z,1575.00
2018-07-28T12:10:34.830Z,1575.00
2018-07-28T12:11:33.709Z,1546.88
2018-07-28T12:12:33.144Z,1518.75
2018-07-28T12:13:31.412Z,1530.00
2018-07-28T12:14:31.430Z,1513.12
2018-07-28T12:15:31.184Z,1473.75
2018-07-28T12:16:29.643Z,1501.88
2018-07-28T12:17:35.273Z,1575.00
2018-07-28T12:18:31.215Z,1861.88
2018-07-28T12:19:31.205Z,1906.88
2018-07-28T12:20:29.651Z,1901.25
2018-07-28T12:21:31.164Z,2441.25
2018-07-28T12:22:33.003Z,2368.12
2018-07-28T12:23:29.573Z,1800.00
2018-07-28T12:24:32.378Z,1603.12
2018-07-28T12:25:31.272Z,1552.50
2018-07-28T12:26:31.195Z,1507.50
2018-07-28T12:27:31.192Z,1507.50
2018-07-28T12:28:31.333Z,1670.62
2018-07-28T12:29:31.250Z,1378.12
2018-07-28T12:30:31.218Z,1406.25
2018-07-28T12:31:31.206Z,1468.12
2018-07-28T12:32:31.164Z,1310.62
2018-07-28T12:33:31.187Z,1254.38
2018-07-28T12:34:31.323Z,1147.50
2018-07-28T12:35:32.243Z,1209.38
2018-07-28T12:36:29.346Z,1220.62
2018-07-28T12:37:31.278Z,1164.38
2018-07-28T12:38:31.187Z,1113.75
2018-07-28T12:39:31.220Z,1080.00
2018-07-28T12:40:31.215Z,1057.50
2018-07-28T12:41:31.167Z,1012.50
2018-07-28T12:42:31.184Z,956.25
2018-07-28T12:43:31.183Z,956.25
2018-07-28T12:44:32.435Z,995.62
2018-07-28T12:45:32.744Z,1057.50
2018-07-28T12:46:31.506Z,1096.88
2018-07-28T12:47:31.235Z,1125.00
2018-07-28T12:48:31.362Z,1170.00
2018-07-28T12:49:31.268Z,1203.75
2018-07-28T12:50:31.423Z,1215.00
2018-07-28T12:51:31.211Z,1181.25
2018-07-28T12:52:30.393Z,1158.75
2018-07-28T12:53:31.223Z,1130.62
2018-07-28T12:54:30.735Z,1085.62
2018-07-28T12:55:31.066Z,1035.00
2018-07-28T12:56:31.707Z,973.12
2018-07-28T12:57:30.808Z,916.88
2018-07-28T12:58:31.907Z,883.12
2018-07-28T12:59:30.919Z,883.12
2018-07-28T13:00:30.702Z,905.62
2018-07-28T13:01:31.846Z,922.50
2018-07-28T13:02:30.747Z,933.75
2018-07-28T13:03:29.889Z,916.88
2018-07-28T13:04:30.814Z,905.62
2018-07-28T13:05:30.908Z,894.38
2018-07-28T13:06:30.749Z,877.50
2018-07-28T13:07:30.678Z,843.75
2018-07-28T13:08:29.042Z,798.75
2018-07-28T13:09:31.053Z,759.38
2018-07-28T13:10:30.687Z,731.25
2018-07-28T13:11:30.691Z,708.75
2018-07-28T13:12:30.769Z,697.50
2018-07-28T13:13:30.802Z,697.50
2018-07-28T13:14:30.697Z,714.38
2018-07-28T13:15:30.755Z,742.50
2018-07-28T13:16:30.731Z,793.12
2018-07-28T13:17:30.753Z,832.50
2018-07-28T13:18:30.780Z,843.75
2018-07-28T13:19:31.224Z,849.38
2018-07-28T13:20:31.180Z,855.00
2018-07-28T13:21:31.039Z,888.75
2018-07-28T13:22:31.662Z,922.50
2018-07-28T13:23:31.721Z,950.62
2018-07-28T13:24:31.666Z,973.12
2018-07-28T13:25:31.683Z,978.75
2018-07-28T13:26:30.866Z,967.50
2018-07-28T13:27:40.691Z,911.25
2018-07-28T13:28:30.681Z,973.12
2018-07-28T13:29:30.762Z,984.38
2018-07-28T13:30:30.669Z,1001.25
2018-07-28T13:31:30.703Z,1018.12
2018-07-28T13:32:30.675Z,1040.62
2018-07-28T13:33:30.671Z,1068.75
2018-07-28T13:34:30.676Z,1091.25
2018-07-28T13:35:30.699Z,1096.88
2018-07-28T13:36:31.734Z,1085.62
2018-07-28T13:37:30.721Z,1057.50
2018-07-28T13:38:28.753Z,1012.50
2018-07-28T13:39:30.704Z,939.38
2018-07-28T13:40:30.181Z,871.88
2018-07-28T13:41:30.232Z,804.38
2018-07-28T13:42:31.229Z,753.75
2018-07-28T13:43:30.185Z,725.62
2018-07-28T13:44:30.176Z,697.50
2018-07-28T13:45:35.614Z,691.88
2018-07-28T13:46:30.169Z,691.88
2018-07-28T13:47:30.163Z,703.12
2018-07-28T13:48:28.713Z,714.38
2018-07-28T13:49:31.338Z,736.88
2018-07-28T13:50:30.269Z,748.12
2018-07-28T13:51:30.192Z,776.25
2018-07-28T13:52:30.290Z,815.62
2018-07-28T13:53:30.399Z,877.50
2018-07-28T13:54:30.223Z,973.12
2018-07-28T13:55:30.361Z,1051.88
2018-07-28T13:56:30.679Z,1136.25
2018-07-28T13:57:28.707Z,1192.50
2018-07-28T13:58:28.986Z,1186.88
2018-07-28T13:59:30.328Z,1158.75
2018-07-28T14:00:30.208Z,1136.25
2018-07-28T14:01:31.403Z,1119.38
2018-07-28T14:02:30.186Z,1091.25
2018-07-28T14:03:30.181Z,1035.00
2018-07-28T14:04:30.303Z,973.12
2018-07-28T14:05:30.223Z,894.38
2018-07-28T14:06:30.182Z,821.25
2018-07-28T14:08:44.795Z,748.12
2018-07-28T14:09:46.582Z,765.00
2018-07-28T14:10:47.447Z,815.62
2018-07-28T14:11:46.742Z,888.75
2018-07-28T14:12:47.451Z,939.38
2018-07-28T14:13:46.283Z,950.62
2018-07-28T14:14:46.465Z,939.38
2018-07-28T14:15:46.354Z,911.25
2018-07-28T14:16:46.406Z,922.50
2018-07-28T14:17:46.374Z,967.50
2018-07-28T14:18:46.475Z,1006.88
2018-07-28T14:19:51.344Z,1051.88
2018-07-28T14:20:48.297Z,1080.00
2018-07-28T14:22:33.312Z,1096.88
2018-07-28T15:24:21.115Z,562.50
2018-07-28T15:25:26.001Z,556.88
2018-07-28T15:26:23.569Z,562.50
2018-07-28T15:27:22.887Z,568.12
2018-07-28T15:28:22.957Z,579.38
2018-07-28T15:29:21.912Z,596.25
2018-07-28T15:30:22.037Z,607.50
2018-07-28T15:31:21.951Z,624.38
2018-07-28T15:32:20.029Z,641.25
2018-07-28T15:33:25.996Z,652.50
2018-07-28T15:34:21.540Z,680.62
2018-07-28T15:35:23.461Z,708.75
2018-07-28T15:36:23.153Z,725.62
2018-07-28T15:37:19.947Z,748.12
2018-07-28T15:39:34.191Z,781.88
2018-07-28T15:40:34.531Z,793.12
2018-07-28T15:41:34.683Z,838.12
2018-07-28T15:42:35.383Z,905.62
2018-07-28T15:43:41.244Z,950.62
2018-07-28T15:44:34.100Z,990.00
2018-07-28T15:49:54.553Z,1035.00
2018-07-28T15:50:56.619Z,956.25
2018-07-28T15:56:16.418Z,720.00
2018-07-28T16:05:10.644Z,680.62
2018-07-28T16:06:16.938Z,624.38
2018-07-28T16:07:11.333Z,601.88
2018-07-28T16:08:11.927Z,585.00
2018-07-28T16:09:11.867Z,601.88
2018-07-28T16:10:12.041Z,590.62
2018-07-28T16:11:11.927Z,573.75
2018-07-28T16:12:12.250Z,556.88
2018-07-28T17:07:07.008Z,292.50
2018-07-28T17:08:06.292Z,286.88
2018-07-28T17:09:06.244Z,286.88
2018-07-28T17:10:06.397Z,286.88
2018-07-28T17:11:06.015Z,286.88
2018-07-28T17:12:07.099Z,281.25
2018-07-28T17:13:06.127Z,281.25
2018-07-28T17:14:07.261Z,281.25
2018-07-28T17:15:06.641Z,275.62
2018-07-28T17:17:24.925Z,275.62
2018-07-28T17:18:26.609Z,275.62
2018-07-28T17:19:26.943Z,275.62
2018-07-28T17:20:25.552Z,270.00
2018-07-28T17:22:45.258Z,270.00
2018-07-28T17:23:48.178Z,270.00
2018-07-28T17:24:53.841Z,264.38
2018-07-28T17:25:45.330Z,264.38
2018-07-28T17:26:45.869Z,258.75
2018-07-28T17:27:46.873Z,258.75
2018-07-28T17:28:45.564Z,258.75
2018-07-28T17:29:45.517Z,253.12
2018-07-28T17:32:01.404Z,253.12
2018-07-28T17:33:03.040Z,247.50
2018-07-28T17:35:24.302Z,230.62
2018-07-28T17:36:23.592Z,230.62
2018-07-28T17:37:23.170Z,225.00
2018-07-28T17:38:23.499Z,219.38
2018-07-28T17:39:32.728Z,219.38
2018-07-28T17:40:23.799Z,219.38
2018-07-28T17:41:23.722Z,219.38
2018-07-28T17:42:23.579Z,213.75
2018-07-28T17:43:23.525Z,213.75
2018-07-28T17:44:23.591Z,202.50
2018-07-28T17:45:24.528Z,196.88
2018-07-28T17:46:24.519Z,196.88
2018-07-28T17:47:24.523Z,196.88
2018-07-28T17:48:24.510Z,191.25
2018-07-28T17:49:23.593Z,191.25
2018-07-28T17:50:24.516Z,185.62
2018-07-28T17:51:23.610Z,180.00
2018-07-28T17:52:22.452Z,180.00
2018-07-28T17:53:24.724Z,180.00
2018-07-28T17:54:23.612Z,174.38
2018-07-28T17:55:23.592Z,168.75
2018-07-28T17:56:23.575Z,168.75
2018-07-28T17:57:23.565Z,163.12
2018-07-28T17:58:23.612Z,163.12
2018-07-28T17:59:23.636Z,163.12
2018-07-28T18:00:23.543Z,163.12
2018-07-28T18:01:23.541Z,163.12
2018-07-28T18:02:23.562Z,163.12
2018-07-28T18:03:23.604Z,168.75
2018-07-28T18:04:23.580Z,168.75
2018-07-28T18:05:21.676Z,174.38
2018-07-28T18:06:23.610Z,180.00
2018-07-28T18:07:23.533Z,180.00
2018-07-28T18:08:24.683Z,185.62
2018-07-28T18:09:45.702Z,185.62
2018-07-28T18:10:23.847Z,174.38
2018-07-28T18:11:24.588Z,168.75
2018-07-28T18:12:28.464Z,163.12
2018-07-28T19:57:08.754Z,0.00
2018-07-28T19:58:09.696Z,0.00
2018-07-28T19:59:08.414Z,0.00
2018-07-28T20:00:09.565Z,0.00
2018-07-28T20:01:09.428Z,0.00
2018-07-28T20:02:10.402Z,0.00
2018-07-28T20:03:09.354Z,0.00
2018-07-28T20:04:09.525Z,0.00
2018-07-28T20:05:09.284Z,0.00
